< < Back
Terminal Aerodrome Forecast


Current Version              Previous Versions:   1  2  3  4  5  6  7  8  9  

Terminal Aerodrome Forecast

950
FTUS42 KFFC 230500
TAFFTY
TAF
KFTY 230522Z 2306/2406 29005KT P6SM SKC
     FM230900 32006KT 4SM BR FEW012
     FM231200 33006KT P6SM SKC=

Latest METAR

236
SAUS70 KWBC 232000 RRE
MTRFTY
METAR KFTY 231953Z 30007G16KT 10SM CLR 24/01 A2992 RMK AO2 SLP126
T02390011


USA.gov is the U.S. government's official web portal to all federal, state and local government web resources and services.